sensor_id;sensor_type;location;lat;lon;timestamp;pressure;altitude;pressure_sealevel;temperature;humidity
30302;BME280;17111;52.130;5.028;2023-05-25T00:01:35;102738.75;;;21.45;47.36
30302;BME280;17111;52.130;5.028;2023-05-25T00:04:02;102745.13;;;21.44;47.33
30302;BME280;17111;52.130;5.028;2023-05-25T00:06:31;102732.50;;;21.44;47.00
30302;BME280;17111;52.130;5.028;2023-05-25T00:08:58;102737.03;;;21.44;47.57
30302;BME280;17111;52.130;5.028;2023-05-25T00:11:24;102747.81;;;21.44;47.24
30302;BME280;17111;52.130;5.028;2023-05-25T00:13:52;102741.56;;;21.43;47.17
30302;BME280;17111;52.130;5.028;2023-05-25T00:16:19;102749.69;;;21.43;47.49
30302;BME280;17111;52.130;5.028;2023-05-25T00:18:45;102756.03;;;21.42;47.34
30302;BME280;17111;52.130;5.028;2023-05-25T00:21:14;102750.63;;;21.42;47.56
30302;BME280;17111;52.130;5.028;2023-05-25T00:23:41;102753.47;;;21.41;47.41
30302;BME280;17111;52.130;5.028;2023-05-25T00:26:08;102753.47;;;21.41;47.39
30302;BME280;17111;52.130;5.028;2023-05-25T00:28:35;102758.03;;;21.40;47.11
30302;BME280;17111;52.130;5.028;2023-05-25T00:31:01;102759.00;;;21.39;47.08
30302;BME280;17111;52.130;5.028;2023-05-25T00:33:28;102749.06;;;21.40;47.22
30302;BME280;17111;52.130;5.028;2023-05-25T00:35:55;102755.47;;;21.39;47.30
30302;BME280;17111;52.130;5.028;2023-05-25T00:38:22;102752.75;;;21.39;47.19
30302;BME280;17111;52.130;5.028;2023-05-25T00:40:53;102748.47;;;21.36;47.21
30302;BME280;17111;52.130;5.028;2023-05-25T00:43:21;102756.72;;;21.35;47.35
30302;BME280;17111;52.130;5.028;2023-05-25T00:45:49;102757.66;;;21.34;47.38
30302;BME280;17111;52.130;5.028;2023-05-25T00:48:17;102765.91;;;21.32;47.52
30302;BME280;17111;52.130;5.028;2023-05-25T00:50:44;102766.84;;;21.31;47.82
30302;BME280;17111;52.130;5.028;2023-05-25T00:53:12;102764.28;;;21.30;47.70
30302;BME280;17111;52.130;5.028;2023-05-25T00:56:09;102768.97;;;21.28;47.78
30302;BME280;17111;52.130;5.028;2023-05-25T00:58:41;102764.41;;;21.28;47.84
30302;BME280;17111;52.130;5.028;2023-05-25T01:01:08;102768.09;;;21.27;47.22
30302;BME280;17111;52.130;5.028;2023-05-25T01:03:40;102762.81;;;21.26;47.66
30302;BME280;17111;52.130;5.028;2023-05-25T01:06:14;102760.25;;;21.24;47.65
30302;BME280;17111;52.130;5.028;2023-05-25T01:08:45;102773.84;;;21.23;47.37
30302;BME280;17111;52.130;5.028;2023-05-25T01:11:13;102779.25;;;21.23;47.39
30302;BME280;17111;52.130;5.028;2023-05-25T01:13:41;102770.44;;;21.20;47.80
30302;BME280;17111;52.130;5.028;2023-05-25T01:16:09;102771.44;;;21.19;47.84
30302;BME280;17111;52.130;5.028;2023-05-25T01:18:37;102768.00;;;21.17;47.51
30302;BME280;17111;52.130;5.028;2023-05-25T01:21:09;102770.69;;;21.17;47.94
30302;BME280;17111;52.130;5.028;2023-05-25T01:26:50;102773.63;;;21.14;47.82
30302;BME280;17111;52.130;5.028;2023-05-25T01:29:20;102776.47;;;21.13;47.92
30302;BME280;17111;52.130;5.028;2023-05-25T01:31:48;102773.78;;;21.13;47.85
30302;BME280;17111;52.130;5.028;2023-05-25T01:34:15;102776.59;;;21.11;48.04
30302;BME280;17111;52.130;5.028;2023-05-25T01:36:42;102783.84;;;21.11;47.91
30302;BME280;17111;52.130;5.028;2023-05-25T01:39:09;102780.25;;;21.10;47.41
30302;BME280;17111;52.130;5.028;2023-05-25T01:41:36;102780.41;;;21.09;47.51
30302;BME280;17111;52.130;5.028;2023-05-25T01:44:03;102782.97;;;21.10;47.96
30302;BME280;17111;52.130;5.028;2023-05-25T01:46:37;102783.09;;;21.09;47.49
30302;BME280;17111;52.130;5.028;2023-05-25T01:49:15;102782.25;;;21.08;47.52
30302;BME280;17111;52.130;5.028;2023-05-25T01:52:03;102790.59;;;21.05;48.09
30302;BME280;17111;52.130;5.028;2023-05-25T01:54:38;102789.59;;;21.06;47.80
30302;BME280;17111;52.130;5.028;2023-05-25T01:57:09;102793.28;;;21.05;47.73
30302;BME280;17111;52.130;5.028;2023-05-25T01:59:41;102784.47;;;21.03;48.09
30302;BME280;17111;52.130;5.028;2023-05-25T02:02:09;102790.81;;;21.02;47.57
30302;BME280;17111;52.130;5.028;2023-05-25T02:04:37;102789.13;;;21.01;47.71
30302;BME280;17111;52.130;5.028;2023-05-25T02:07:04;102793.53;;;21.02;47.79
30302;BME280;17111;52.130;5.028;2023-05-25T02:09:31;102788.28;;;21.01;47.56
30302;BME280;17111;52.130;5.028;2023-05-25T02:11:58;102789.25;;;21.00;47.51
30302;BME280;17111;52.130;5.028;2023-05-25T02:14:24;102786.66;;;20.98;48.11
30302;BME280;17111;52.130;5.028;2023-05-25T02:16:51;102795.63;;;20.99;47.84
30302;BME280;17111;52.130;5.028;2023-05-25T02:19:17;102790.34;;;20.97;47.64
30302;BME280;17111;52.130;5.028;2023-05-25T02:21:44;102788.66;;;20.96;47.93
30302;BME280;17111;52.130;5.028;2023-05-25T02:24:11;102794.03;;;20.96;48.07
30302;BME280;17111;52.130;5.028;2023-05-25T02:26:38;102799.44;;;20.96;48.14
30302;BME280;17111;52.130;5.028;2023-05-25T02:29:05;102799.56;;;20.94;47.64
30302;BME280;17111;52.130;5.028;2023-05-25T02:31:32;102803.13;;;20.95;47.86
30302;BME280;17111;52.130;5.028;2023-05-25T02:33:58;102796.00;;;20.94;47.89
30302;BME280;17111;52.130;5.028;2023-05-25T02:36:25;102810.47;;;20.93;48.09
30302;BME280;17111;52.130;5.028;2023-05-25T02:38:52;102801.53;;;20.92;47.81
30302;BME280;17111;52.130;5.028;2023-05-25T02:41:19;102803.38;;;20.92;47.70
30302;BME280;17111;52.130;5.028;2023-05-25T02:43:46;102807.91;;;20.91;47.49
30302;BME280;17111;52.130;5.028;2023-05-25T02:46:13;102801.66;;;20.91;47.60
30302;BME280;17111;52.130;5.028;2023-05-25T02:48:40;102805.31;;;20.90;47.82
30302;BME280;17111;52.130;5.028;2023-05-25T02:51:07;102804.59;;;20.88;47.70
30302;BME280;17111;52.130;5.028;2023-05-25T02:53:34;102810.84;;;20.88;47.85
30302;BME280;17111;52.130;5.028;2023-05-25T02:56:01;102805.59;;;20.87;47.83
30302;BME280;17111;52.130;5.028;2023-05-25T02:58:29;102802.00;;;20.86;48.00
30302;BME280;17111;52.130;5.028;2023-05-25T03:00:56;102808.38;;;20.85;47.87
30302;BME280;17111;52.130;5.028;2023-05-25T03:03:26;102810.22;;;20.85;48.04
30302;BME280;17111;52.130;5.028;2023-05-25T03:05:53;102805.81;;;20.84;47.90
30302;BME280;17111;52.130;5.028;2023-05-25T03:08:20;102811.22;;;20.84;47.95
30302;BME280;17111;52.130;5.028;2023-05-25T03:10:47;102814.00;;;20.82;48.30
30302;BME280;17111;52.130;5.028;2023-05-25T03:13:14;102814.00;;;20.82;47.83
30302;BME280;17111;52.130;5.028;2023-05-25T03:15:40;102808.63;;;20.82;47.93
30302;BME280;17111;52.130;5.028;2023-05-25T03:18:07;102812.31;;;20.81;47.82
30302;BME280;17111;52.130;5.028;2023-05-25T03:20:34;102815.00;;;20.81;47.62
30302;BME280;17111;52.130;5.028;2023-05-25T03:23:01;102816.00;;;20.80;48.16
30302;BME280;17111;52.130;5.028;2023-05-25T03:25:27;102810.59;;;20.80;47.85
30302;BME280;17111;52.130;5.028;2023-05-25T03:27:54;102817.84;;;20.80;47.97
30302;BME280;17111;52.130;5.028;2023-05-25T03:30:21;102820.63;;;20.78;47.53
30302;BME280;17111;52.130;5.028;2023-05-25T03:32:48;102817.09;;;20.78;48.02
30302;BME280;17111;52.130;5.028;2023-05-25T03:35:15;102814.38;;;20.78;48.01
30302;BME280;17111;52.130;5.028;2023-05-25T03:37:41;102819.91;;;20.76;47.65
30302;BME280;17111;52.130;5.028;2023-05-25T03:40:08;102816.38;;;20.76;48.03
30302;BME280;17111;52.130;5.028;2023-05-25T03:42:37;102821.75;;;20.76;47.98
30302;BME280;17111;52.130;5.028;2023-05-25T03:45:04;102811.97;;;20.75;47.86
30302;BME280;17111;52.130;5.028;2023-05-25T03:47:31;102811.09;;;20.74;47.69
30302;BME280;17111;52.130;5.028;2023-05-25T03:49:58;102811.09;;;20.74;48.02
30302;BME280;17111;52.130;5.028;2023-05-25T03:52:25;102812.06;;;20.73;48.24
30302;BME280;17111;52.130;5.028;2023-05-25T03:54:51;102815.63;;;20.74;48.18
30302;BME280;17111;52.130;5.028;2023-05-25T03:57:18;102816.59;;;20.73;48.24
30302;BME280;17111;52.130;5.028;2023-05-25T03:59:44;102822.00;;;20.73;48.00
30302;BME280;17111;52.130;5.028;2023-05-25T04:02:12;102831.06;;;20.72;47.63
30302;BME280;17111;52.130;5.028;2023-05-25T04:04:38;102836.47;;;20.72;47.66
30302;BME280;17111;52.130;5.028;2023-05-25T04:07:07;102832.91;;;20.71;48.16
30302;BME280;17111;52.130;5.028;2023-05-25T04:09:33;102838.31;;;20.71;47.80
30302;BME280;17111;52.130;5.028;2023-05-25T04:12:00;102835.72;;;20.69;47.63
30302;BME280;17111;52.130;5.028;2023-05-25T04:14:27;102836.56;;;20.70;47.68
30302;BME280;17111;52.130;5.028;2023-05-25T04:16:54;102837.44;;;20.70;47.86
30302;BME280;17111;52.130;5.028;2023-05-25T04:19:21;102833.00;;;20.69;47.92
30302;BME280;17111;52.130;5.028;2023-05-25T04:21:47;102836.56;;;20.70;47.38
30302;BME280;17111;52.130;5.028;2023-05-25T04:24:14;102844.66;;;20.70;47.62
30302;BME280;17111;52.130;5.028;2023-05-25T04:26:40;102849.19;;;20.69;47.82
30302;BME280;17111;52.130;5.028;2023-05-25T04:29:08;102849.19;;;20.69;47.95
30302;BME280;17111;52.130;5.028;2023-05-25T04:31:35;102859.97;;;20.69;48.00
30302;BME280;17111;52.130;5.028;2023-05-25T04:34:02;102858.13;;;20.70;48.09
30302;BME280;17111;52.130;5.028;2023-05-25T04:36:29;102858.13;;;20.70;47.79
30302;BME280;17111;52.130;5.028;2023-05-25T04:38:58;102859.97;;;20.69;48.02
30302;BME280;17111;52.130;5.028;2023-05-25T04:41:28;102859.00;;;20.70;48.04
30302;BME280;17111;52.130;5.028;2023-05-25T04:43:59;102860.72;;;20.72;47.87
30302;BME280;17111;52.130;5.028;2023-05-25T04:46:35;102856.03;;;20.74;47.75
30302;BME280;17111;52.130;5.028;2023-05-25T04:49:06;102851.41;;;20.76;47.74
30302;BME280;17111;52.130;5.028;2023-05-25T04:51:35;102859.50;;;20.76;47.91
30302;BME280;17111;52.130;5.028;2023-05-25T04:54:02;102861.94;;;20.79;47.44
30302;BME280;17111;52.130;5.028;2023-05-25T04:56:29;102858.25;;;20.80;48.02
30302;BME280;17111;52.130;5.028;2023-05-25T04:58:56;102868.06;;;20.81;47.50
30302;BME280;17111;52.130;5.028;2023-05-25T05:01:23;102874.19;;;20.83;47.32
30302;BME280;17111;52.130;5.028;2023-05-25T05:03:51;102871.22;;;20.86;47.60
30302;BME280;17111;52.130;5.028;2023-05-25T05:06:18;102878.38;;;20.87;47.57
30302;BME280;17111;52.130;5.028;2023-05-25T05:08:45;102894.25;;;20.90;47.95
30302;BME280;17111;52.130;5.028;2023-05-25T05:11:11;102887.91;;;20.91;47.52
30302;BME280;17111;52.130;5.028;2023-05-25T05:13:38;102885.94;;;20.93;48.02
30302;BME280;17111;52.130;5.028;2023-05-25T05:16:05;102883.00;;;20.96;47.66
30302;BME280;17111;52.130;5.028;2023-05-25T05:18:31;102884.59;;;20.99;47.65
30302;BME280;17111;52.130;5.028;2023-05-25T05:20:58;102884.34;;;21.02;47.86
30302;BME280;17111;52.130;5.028;2023-05-25T05:23:25;102878.00;;;21.03;47.23
30302;BME280;17111;52.130;5.028;2023-05-25T05:25:52;102874.16;;;21.05;47.70
30302;BME280;17111;52.130;5.028;2023-05-25T05:28:18;102883.84;;;21.08;47.47
30302;BME280;17111;52.130;5.028;2023-05-25T05:30:45;102881.78;;;21.11;47.16
30302;BME280;17111;52.130;5.028;2023-05-25T05:33:13;102884.34;;;21.13;47.41
30302;BME280;17111;52.130;5.028;2023-05-25T05:35:39;102886.78;;;21.16;47.08
30302;BME280;17111;52.130;5.028;2023-05-25T05:38:06;102892.03;;;21.17;47.29
30302;BME280;17111;52.130;5.028;2023-05-25T05:40:33;102895.22;;;21.23;47.66
30302;BME280;17111;52.130;5.028;2023-05-25T05:42:59;102900.50;;;21.24;47.18
30302;BME280;17111;52.130;5.028;2023-05-25T05:45:26;102907.50;;;21.27;47.21
30302;BME280;17111;52.130;5.028;2023-05-25T05:47:53;102901.84;;;21.30;47.01
30302;BME280;17111;52.130;5.028;2023-05-25T05:50:19;102903.47;;;21.32;46.97
30302;BME280;17111;52.130;5.028;2023-05-25T05:52:46;102904.31;;;21.33;46.92
30302;BME280;17111;52.130;5.028;2023-05-25T05:55:13;102913.16;;;21.35;47.01
30302;BME280;17111;52.130;5.028;2023-05-25T05:57:40;102912.16;;;21.36;46.93
30302;BME280;17111;52.130;5.028;2023-05-25T06:00:07;102909.34;;;21.37;46.97
30302;BME280;17111;52.130;5.028;2023-05-25T06:02:34;102915.59;;;21.38;47.25
30302;BME280;17111;52.130;5.028;2023-05-25T06:05:01;102924.66;;;21.37;47.01
30302;BME280;17111;52.130;5.028;2023-05-25T06:07:28;102926.38;;;21.38;46.51
30302;BME280;17111;52.130;5.028;2023-05-25T06:09:56;102934.47;;;21.38;46.75
30302;BME280;17111;52.130;5.028;2023-05-25T06:12:22;102938.03;;;21.38;46.80
30302;BME280;17111;52.130;5.028;2023-05-25T06:14:49;102938.03;;;21.38;46.88
30302;BME280;17111;52.130;5.028;2023-05-25T06:17:17;102936.31;;;21.37;46.72
30302;BME280;17111;52.130;5.028;2023-05-25T06:19:44;102939.88;;;21.38;46.90
30302;BME280;17111;52.130;5.028;2023-05-25T06:22:11;102932.63;;;21.38;46.56
30302;BME280;17111;52.130;5.028;2023-05-25T06:24:37;102934.47;;;21.38;47.08
30302;BME280;17111;52.130;5.028;2023-05-25T06:27:04;102934.47;;;21.38;46.91
30302;BME280;17111;52.130;5.028;2023-05-25T06:29:31;102932.63;;;21.38;47.19
30302;BME280;17111;52.130;5.028;2023-05-25T06:31:57;102929.06;;;21.38;47.08
30302;BME280;17111;52.130;5.028;2023-05-25T06:34:24;102934.47;;;21.38;46.83
30302;BME280;17111;52.130;5.028;2023-05-25T06:36:51;102941.59;;;21.39;46.86
30302;BME280;17111;52.130;5.028;2023-05-25T06:39:18;102938.91;;;21.39;46.79
30302;BME280;17111;52.130;5.028;2023-05-25T06:41:45;102942.44;;;21.39;46.82
30302;BME280;17111;52.130;5.028;2023-05-25T06:44:12;102942.31;;;21.41;46.93
30302;BME280;17111;52.130;5.028;2023-05-25T06:46:38;102946.84;;;21.40;46.65
30302;BME280;17111;52.130;5.028;2023-05-25T06:49:05;102950.41;;;21.41;46.52
30302;BME280;17111;52.130;5.028;2023-05-25T06:51:32;102949.56;;;21.40;46.77
30302;BME280;17111;52.130;5.028;2023-05-25T06:53:58;102946.00;;;21.40;46.86
30302;BME280;17111;52.130;5.028;2023-05-25T06:56:25;102951.41;;;21.40;46.79
30302;BME280;17111;52.130;5.028;2023-05-25T06:58:53;102952.38;;;21.39;46.79
30302;BME280;17111;52.130;5.028;2023-05-25T07:01:19;102948.72;;;21.40;46.73
30302;BME280;17111;52.130;5.028;2023-05-25T07:03:46;102951.41;;;21.40;46.58
30302;BME280;17111;52.130;5.028;2023-05-25T07:06:13;102964.03;;;21.39;46.61
30302;BME280;17111;52.130;5.028;2023-05-25T07:08:40;102965.88;;;21.39;46.66
30302;BME280;17111;52.130;5.028;2023-05-25T07:11:07;102969.53;;;21.38;46.76
30302;BME280;17111;52.130;5.028;2023-05-25T07:13:36;102971.28;;;21.39;46.78
30302;BME280;17111;52.130;5.028;2023-05-25T07:16:02;102973.97;;;21.39;46.79
30302;BME280;17111;52.130;5.028;2023-05-25T07:18:29;102967.69;;;21.38;46.55
30302;BME280;17111;52.130;5.028;2023-05-25T07:20:56;102974.84;;;21.39;46.63
30302;BME280;17111;52.130;5.028;2023-05-25T07:23:22;102978.38;;;21.40;46.78
30302;BME280;17111;52.130;5.028;2023-05-25T07:25:49;102981.06;;;21.40;46.62
30302;BME280;17111;52.130;5.028;2023-05-25T07:28:15;102981.06;;;21.40;46.76
30302;BME280;17111;52.130;5.028;2023-05-25T07:30:42;102979.94;;;21.42;46.80
30302;BME280;17111;52.130;5.028;2023-05-25T07:33:09;102989.78;;;21.43;46.55
30302;BME280;17111;52.130;5.028;2023-05-25T07:35:35;102984.25;;;21.45;46.86
30302;BME280;17111;52.130;5.028;2023-05-25T07:38:02;102985.97;;;21.46;46.69
30302;BME280;17111;52.130;5.028;2023-05-25T07:40:32;102988.66;;;21.46;46.54
30302;BME280;17111;52.130;5.028;2023-05-25T07:42:58;102987.69;;;21.47;46.58
30302;BME280;17111;52.130;5.028;2023-05-25T07:45:25;102985.84;;;21.48;46.17
30302;BME280;17111;52.130;5.028;2023-05-25T07:47:52;102981.31;;;21.48;46.40
30302;BME280;17111;52.130;5.028;2023-05-25T07:50:18;102984.88;;;21.49;46.56
30302;BME280;17111;52.130;5.028;2023-05-25T07:52:45;102980.31;;;21.49;46.43
30302;BME280;17111;52.130;5.028;2023-05-25T07:55:12;102984.72;;;21.50;46.53
30302;BME280;17111;52.130;5.028;2023-05-25T07:57:38;102981.94;;;21.52;46.46
30302;BME280;17111;52.130;5.028;2023-05-25T08:00:05;102984.50;;;21.53;46.45
30302;BME280;17111;52.130;5.028;2023-05-25T08:02:36;102990.63;;;21.55;46.28
30302;BME280;17111;52.130;5.028;2023-05-25T08:05:03;102995.91;;;21.57;46.56
30302;BME280;17111;52.130;5.028;2023-05-25T08:07:32;102995.75;;;21.58;46.35
30302;BME280;17111;52.130;5.028;2023-05-25T08:09:59;102998.34;;;21.60;46.09
30302;BME280;17111;52.130;5.028;2023-05-25T08:12:26;103000.06;;;21.61;46.02
30302;BME280;17111;52.130;5.028;2023-05-25T08:15:12;103008.91;;;21.63;45.94
30302;BME280;17111;52.130;5.028;2023-05-25T08:17:39;103009.75;;;21.63;45.96
30302;BME280;17111;52.130;5.028;2023-05-25T08:20:07;103016.00;;;21.64;45.81
30302;BME280;17111;52.130;5.028;2023-05-25T08:22:34;103007.06;;;21.63;45.71
30302;BME280;17111;52.130;5.028;2023-05-25T08:25:02;103021.41;;;21.64;45.79
30302;BME280;17111;52.130;5.028;2023-05-25T08:27:29;103026.81;;;21.64;45.82
30302;BME280;17111;52.130;5.028;2023-05-25T08:30:00;103033.06;;;21.64;45.91
30302;BME280;17111;52.130;5.028;2023-05-25T08:32:26;103025.94;;;21.63;45.95
30302;BME280;17111;52.130;5.028;2023-05-25T08:34:53;103033.06;;;21.64;46.29
30302;BME280;17111;52.130;5.028;2023-05-25T08:37:20;103033.91;;;21.65;45.96
30302;BME280;17111;52.130;5.028;2023-05-25T08:39:49;103030.34;;;21.64;46.06
30302;BME280;17111;52.130;5.028;2023-05-25T08:42:15;103033.06;;;21.64;46.25
30302;BME280;17111;52.130;5.028;2023-05-25T08:44:42;103040.16;;;21.65;45.94
30302;BME280;17111;52.130;5.028;2023-05-25T08:47:10;103029.38;;;21.65;46.36
30302;BME280;17111;52.130;5.028;2023-05-25T08:49:38;103036.47;;;21.66;46.08
30302;BME280;17111;52.130;5.028;2023-05-25T08:52:09;103035.50;;;21.67;45.94
30302;BME280;17111;52.130;5.028;2023-05-25T08:54:36;103029.13;;;21.68;46.29
30302;BME280;17111;52.130;5.028;2023-05-25T08:57:14;103030.84;;;21.69;46.05
30302;BME280;17111;52.130;5.028;2023-05-25T09:02:37;103024.44;;;21.71;45.92
30302;BME280;17111;52.130;5.028;2023-05-25T09:05:05;103035.13;;;21.72;46.09
30302;BME280;17111;52.130;5.028;2023-05-25T09:07:32;103030.59;;;21.73;46.05
30302;BME280;17111;52.130;5.028;2023-05-25T09:10:00;103019.78;;;21.73;45.95
30302;BME280;17111;52.130;5.028;2023-05-25T09:12:30;103021.50;;;21.74;46.10
30302;BME280;17111;52.130;5.028;2023-05-25T09:14:57;103019.56;;;21.76;45.81
30302;BME280;17111;52.130;5.028;2023-05-25T09:17:24;103024.81;;;21.77;45.86
30302;BME280;17111;52.130;5.028;2023-05-25T09:19:52;103021.97;;;21.79;45.64
30302;BME280;17111;52.130;5.028;2023-05-25T09:22:18;103029.13;;;21.80;45.89
30302;BME280;17111;52.130;5.028;2023-05-25T09:24:45;103036.22;;;21.81;45.80
30302;BME280;17111;52.130;5.028;2023-05-25T09:27:22;103037.06;;;21.81;45.72
30302;BME280;17111;52.130;5.028;2023-05-25T09:29:49;103031.53;;;21.83;45.65
30302;BME280;17111;52.130;5.028;2023-05-25T09:32:17;103035.22;;;21.82;45.67
30302;BME280;17111;52.130;5.028;2023-05-25T09:34:45;103036.94;;;21.83;45.64
30302;BME280;17111;52.130;5.028;2023-05-25T09:37:16;103036.94;;;21.83;45.63
30302;BME280;17111;52.130;5.028;2023-05-25T09:39:45;103030.69;;;21.82;45.88
30302;BME280;17111;52.130;5.028;2023-05-25T09:42:13;103033.38;;;21.82;45.82
30302;BME280;17111;52.130;5.028;2023-05-25T09:44:39;103033.38;;;21.82;46.02
30302;BME280;17111;52.130;5.028;2023-05-25T09:47:08;103028.97;;;21.81;45.92
30302;BME280;17111;52.130;5.028;2023-05-25T09:49:35;103035.22;;;21.82;45.89
30302;BME280;17111;52.130;5.028;2023-05-25T09:52:01;103036.94;;;21.83;46.00
30302;BME280;17111;52.130;5.028;2023-05-25T09:54:28;103032.53;;;21.82;45.98
30302;BME280;17111;52.130;5.028;2023-05-25T09:56:55;103034.25;;;21.83;46.10
30302;BME280;17111;52.130;5.028;2023-05-25T09:59:22;103038.69;;;21.84;45.98
30302;BME280;17111;52.130;5.028;2023-05-25T10:01:51;103039.53;;;21.84;46.03
30302;BME280;17111;52.130;5.028;2023-05-25T10:04:19;103033.13;;;21.85;45.69
30302;BME280;17111;52.130;5.028;2023-05-25T10:06:47;103041.00;;;21.88;45.72
30302;BME280;17111;52.130;5.028;2023-05-25T10:09:17;103043.56;;;21.90;45.70
30302;BME280;17111;52.130;5.028;2023-05-25T10:11:45;103039.91;;;21.91;45.74
30302;BME280;17111;52.130;5.028;2023-05-25T10:14:14;103041.59;;;21.92;45.83
30302;BME280;17111;52.130;5.028;2023-05-25T10:16:47;103038.78;;;21.93;45.44
30302;BME280;17111;52.130;5.028;2023-05-25T10:19:19;103038.66;;;21.95;45.77
30302;BME280;17111;52.130;5.028;2023-05-25T10:22:15;103034.97;;;21.96;45.68
30302;BME280;17111;52.130;5.028;2023-05-25T10:24:54;103039.25;;;21.99;45.74
30302;BME280;17111;52.130;5.028;2023-05-25T10:27:36;103035.59;;;22.00;45.85
30302;BME280;17111;52.130;5.028;2023-05-25T10:30:08;103048.09;;;22.01;45.90
30302;BME280;17111;52.130;5.028;2023-05-25T10:32:38;103041.69;;;22.02;45.56
30302;BME280;17111;52.130;5.028;2023-05-25T10:35:07;103045.25;;;22.02;45.73
30302;BME280;17111;52.130;5.028;2023-05-25T10:37:34;103047.94;;;22.02;45.63
30302;BME280;17111;52.130;5.028;2023-05-25T10:40:04;103048.81;;;22.03;45.58
30302;BME280;17111;52.130;5.028;2023-05-25T10:42:34;103049.69;;;22.03;45.66
30302;BME280;17111;52.130;5.028;2023-05-25T10:45:06;103055.94;;;22.04;45.43
30302;BME280;17111;52.130;5.028;2023-05-25T10:47:36;103046.00;;;22.04;45.69
30302;BME280;17111;52.130;5.028;2023-05-25T10:50:03;103045.75;;;22.07;45.54
30302;BME280;17111;52.130;5.028;2023-05-25T10:52:31;103046.59;;;22.08;45.65
30302;BME280;17111;52.130;5.028;2023-05-25T10:55:00;103042.91;;;22.09;45.80
30302;BME280;17111;52.130;5.028;2023-05-25T10:57:29;103048.31;;;22.09;45.65
30302;BME280;17111;52.130;5.028;2023-05-25T11:00:04;103049.16;;;22.09;45.77
30302;BME280;17111;52.130;5.028;2023-05-25T11:02:53;103046.47;;;22.09;45.72
30302;BME280;17111;52.130;5.028;2023-05-25T11:05:33;103045.47;;;22.10;45.67
30302;BME280;17111;52.130;5.028;2023-05-25T11:08:07;103047.22;;;22.11;45.76
30302;BME280;17111;52.130;5.028;2023-05-25T11:10:50;103047.22;;;22.11;45.67
30302;BME280;17111;52.130;5.028;2023-05-25T11:18:40;103046.13;;;22.14;45.66
30302;BME280;17111;52.130;5.028;2023-05-25T11:23:54;103051.53;;;22.14;45.44
30302;BME280;17111;52.130;5.028;2023-05-25T11:26:29;103042.66;;;22.12;45.51
30302;BME280;17111;52.130;5.028;2023-05-25T11:28:57;103046.13;;;22.14;45.35
30302;BME280;17111;52.130;5.028;2023-05-25T11:31:28;103037.91;;;22.15;45.44
30302;BME280;17111;52.130;5.028;2023-05-25T11:34:04;103043.31;;;22.15;45.53
30302;BME280;17111;52.130;5.028;2023-05-25T11:36:33;103051.28;;;22.17;45.90
30302;BME280;17111;52.130;5.028;2023-05-25T11:39:02;103044.88;;;22.18;45.25
30302;BME280;17111;52.130;5.028;2023-05-25T11:41:48;103041.06;;;22.21;45.86
30302;BME280;17111;52.130;5.028;2023-05-25T11:44:34;103033.81;;;22.21;45.43
30302;BME280;17111;52.130;5.028;2023-05-25T11:47:06;103038.22;;;22.22;45.56
30302;BME280;17111;52.130;5.028;2023-05-25T11:49:41;103038.13;;;22.24;45.55
30302;BME280;17111;52.130;5.028;2023-05-25T11:52:13;103029.03;;;22.25;45.56
30302;BME280;17111;52.130;5.028;2023-05-25T11:54:40;103024.47;;;22.25;45.36
30302;BME280;17111;52.130;5.028;2023-05-25T11:57:15;103034.28;;;22.26;45.42
30302;BME280;17111;52.130;5.028;2023-05-25T11:59:52;103027.03;;;22.27;45.63
30302;BME280;17111;52.130;5.028;2023-05-25T12:02:21;103027.91;;;22.27;45.66
30302;BME280;17111;52.130;5.028;2023-05-25T12:04:56;103030.47;;;22.29;45.60
30302;BME280;17111;52.130;5.028;2023-05-25T12:07:25;103026.78;;;22.30;45.79
30302;BME280;17111;52.130;5.028;2023-05-25T12:10:06;103017.69;;;22.31;45.28
30302;BME280;17111;52.130;5.028;2023-05-25T12:12:39;103027.53;;;22.32;45.62
30302;BME280;17111;52.130;5.028;2023-05-25T12:15:08;103026.53;;;22.33;45.51
30302;BME280;17111;52.130;5.028;2023-05-25T12:17:36;103030.94;;;22.34;45.56
30302;BME280;17111;52.130;5.028;2023-05-25T12:20:04;103029.94;;;22.35;45.27
30302;BME280;17111;52.130;5.028;2023-05-25T12:22:33;103035.34;;;22.35;45.53
30302;BME280;17111;52.130;5.028;2023-05-25T12:24:59;103029.94;;;22.35;45.57
30302;BME280;17111;52.130;5.028;2023-05-25T12:27:26;103034.38;;;22.36;45.29
30302;BME280;17111;52.130;5.028;2023-05-25T12:29:57;103042.50;;;22.36;45.48
30302;BME280;17111;52.130;5.028;2023-05-25T12:32:24;103029.84;;;22.36;45.28
30302;BME280;17111;52.130;5.028;2023-05-25T12:35:00;103029.84;;;22.36;45.50
30302;BME280;17111;52.130;5.028;2023-05-25T12:37:27;103028.00;;;22.37;45.64
30302;BME280;17111;52.130;5.028;2023-05-25T12:39:54;103028.00;;;22.37;45.51
30302;BME280;17111;52.130;5.028;2023-05-25T12:42:21;103031.53;;;22.37;45.45
30302;BME280;17111;52.130;5.028;2023-05-25T12:44:53;103019.03;;;22.36;45.45
30302;BME280;17111;52.130;5.028;2023-05-25T12:47:21;103029.69;;;22.38;45.47
30302;BME280;17111;52.130;5.028;2023-05-25T12:49:50;103026.16;;;22.37;45.62
30302;BME280;17111;52.130;5.028;2023-05-25T12:52:37;103032.41;;;22.38;45.35
30302;BME280;17111;52.130;5.028;2023-05-25T12:58:02;103027.84;;;22.38;45.42
30302;BME280;17111;52.130;5.028;2023-05-25T13:02:58;103028.69;;;22.39;45.32
30302;BME280;17111;52.130;5.028;2023-05-25T13:05:27;103026.88;;;22.39;45.28
30302;BME280;17111;52.130;5.028;2023-05-25T13:07:56;103024.19;;;22.39;45.24
30302;BME280;17111;52.130;5.028;2023-05-25T13:10:24;103015.19;;;22.39;45.71
30302;BME280;17111;52.130;5.028;2023-05-25T13:12:51;103026.88;;;22.39;45.10
30302;BME280;17111;52.130;5.028;2023-05-25T13:15:20;103021.47;;;22.39;45.32
30302;BME280;17111;52.130;5.028;2023-05-25T13:17:48;103018.78;;;22.39;45.31